Terminal Aerodrome Forecast
Issued by NWS

Home | Current Version | Previous Version | Text Only | Print | Product List | Glossary On
Versions: 1 2 3 4 5 6 7 8 9 10 11 12 13 14 15 16 17 18 19 20 21 22 23 24
000
FTUS45 KREV 292325
TAFTRK
TAF
KTRK 292325Z 3000/3024 25012G20KT P6SM SCT080 BKN150
     FM300200 21008KT P6SM SCT150 BKN200
     FM300700 VRB05KT P6SM SCT200
     FM302000 24009KT P6SM SCT200=

USA.gov is the U.S. government's official web portal to all federal, state and local government web resources and services.